Time;durP1;ratioP1;P1;durP2;ratioP2;P2;SDS_P1;SDS_P2;PMS_P1;PMS_P2;Temp;Humidity;BMP_temperature;BMP_pressure;BME280_temperature;BME280_humidity;BME280_pressure;Samples;Min_cycle;Max_cycle;Signal;HPM_P1;HPM_P2
2022/04/04 00:01:03;;;;;;;11.60;9.55;;;;;;;2.48;70.52;101853.97;5106276;28;20395;-70
2022/04/04 00:03:32;;;;;;;13.27;10.15;;;;;;;2.45;70.47;101853.16;5091507;28;20024;-70
2022/04/04 00:05:57;;;;;;;14.43;10.23;;;;;;;2.45;70.82;101855.78;5091739;28;20492;-70
2022/04/04 00:08:22;;;;;;;12.55;9.93;;;;;;;2.46;70.81;101849.63;5090353;28;20509;-70
2022/04/04 00:10:49;;;;;;;11.48;10.38;;;;;;;2.44;70.23;101852.28;5090388;28;20075;-70
2022/04/04 00:13:14;;;;;;;10.55;9.45;;;;;;;2.44;70.55;101843.53;5094520;28;20394;-70
2022/04/04 00:15:41;;;;;;;11.73;9.90;;;;;;;2.42;70.61;101834.81;5090289;28;20043;-70
2022/04/04 00:18:10;;;;;;;12.35;9.80;;;;;;;2.36;70.74;101829.66;5090485;28;20024;-70
2022/04/04 00:20:36;;;;;;;12.23;9.70;;;;;;;2.36;71.07;101833.13;5093832;28;20023;-70
2022/04/04 00:23:01;;;;;;;10.45;9.45;;;;;;;2.43;71.13;101828.66;5106911;28;20367;-70
2022/04/04 00:25:29;;;;;;;10.85;9.75;;;;;;;2.35;71.05;101828.75;5092581;28;20034;-70
2022/04/04 00:27:54;;;;;;;10.60;9.52;;;;;;;2.39;70.36;101817.34;5097257;28;20028;-70
2022/04/04 00:30:20;;;;;;;14.50;10.20;;;;;;;2.32;71.50;101820.06;5091596;28;20032;-70
2022/04/04 00:32:48;;;;;;;13.70;10.15;;;;;;;2.27;71.24;101825.38;5089979;28;20073;-70
2022/04/04 00:35:14;;;;;;;12.40;10.40;;;;;;;2.30;71.15;101819.25;5087279;28;20032;-70
2022/04/04 00:37:39;;;;;;;13.43;10.68;;;;;;;2.22;71.47;101801.81;5090073;28;20038;-70
2022/04/04 00:40:07;;;;;;;13.25;10.40;;;;;;;2.22;71.31;101807.06;5090869;28;20036;-70
2022/04/04 00:42:33;;;;;;;13.75;10.40;;;;;;;2.18;72.03;101807.13;5092212;28;20059;-70
2022/04/04 00:44:59;;;;;;;11.52;10.20;;;;;;;2.13;71.70;101796.69;5102322;28;20093;-70
2022/04/04 00:47:24;;;;;;;11.98;10.55;;;;;;;2.17;71.98;101806.25;5091333;28;20490;-70
2022/04/04 00:49:49;;;;;;;12.93;10.48;;;;;;;2.08;72.18;101801.13;5092913;28;20028;-70
2022/04/04 00:52:16;;;;;;;15.90;10.48;;;;;;;1.99;71.61;101783.72;5082772;28;20191;-70
2022/04/04 00:54:41;;;;;;;12.90;11.60;;;;;;;2.05;72.24;101788.91;5091887;28;20205;-70
2022/04/04 00:57:07;;;;;;;14.45;11.45;;;;;;;2.03;72.21;101785.44;5101841;28;20110;-70
2022/04/04 00:59:34;;;;;;;13.57;11.20;;;;;;;1.98;72.48;101792.50;5056180;28;20039;-70
2022/04/04 01:02:02;;;;;;;12.95;10.65;;;;;;;1.99;72.02;101780.25;5089338;28;20024;-70
2022/04/04 01:04:27;;;;;;;13.52;11.23;;;;;;;2.02;71.94;101782.84;5089537;28;20012;-70
2022/04/04 01:06:53;;;;;;;13.63;11.40;;;;;;;1.96;72.63;101770.66;5090177;28;20024;-70
2022/04/04 01:09:18;;;;;;;12.88;10.95;;;;;;;1.93;72.19;101775.09;5072870;28;20034;-70
2022/04/04 01:12:09;;;;;;;13.32;11.88;;;;;;;1.95;72.13;101770.69;5086470;28;20529;-70
2022/04/04 01:14:36;;;;;;;13.15;11.90;;;;;;;1.92;72.25;101761.09;5096706;28;20030;-70
2022/04/04 01:17:01;;;;;;;14.73;11.88;;;;;;;1.92;72.45;101758.47;5106413;28;20023;-70
2022/04/04 01:19:27;;;;;;;14.20;11.02;;;;;;;1.96;72.26;101749.66;5092083;28;20028;-70
2022/04/04 01:21:53;;;;;;;13.63;11.77;;;;;;;1.90;72.44;101748.88;5093598;28;20019;-70
2022/04/04 01:24:20;;;;;;;14.85;11.18;;;;;;;1.95;72.24;101744.47;5093256;28;20036;-70
2022/04/04 01:26:50;;;;;;;13.45;11.20;;;;;;;1.89;71.84;101731.44;5072306;28;20487;-70
2022/04/04 01:29:22;;;;;;;14.93;11.10;;;;;;;1.91;71.72;101729.63;5091127;28;20028;-70
2022/04/04 01:32:06;;;;;;;12.03;10.63;;;;;;;1.92;72.23;101728.75;5088241;28;20031;-70
2022/04/04 01:34:31;;;;;;;15.75;11.65;;;;;;;1.82;71.85;101714.88;5100121;28;20411;-70
2022/04/04 01:36:57;;;;;;;14.52;11.05;;;;;;;1.86;71.73;101713.97;5099447;28;20043;-70
2022/04/04 01:39:24;;;;;;;14.40;11.20;;;;;;;1.86;71.76;101703.47;5098265;28;20032;-70
2022/04/04 01:41:49;;;;;;;15.17;11.23;;;;;;;1.91;71.36;101706.03;5089820;28;20044;-70
2022/04/04 01:44:15;;;;;;;13.17;11.50;;;;;;;1.91;71.56;101700.78;5075103;28;20108;-70
2022/04/04 01:46:41;;;;;;;13.88;11.65;;;;;;;1.86;71.63;101693.00;5092651;28;20059;-70
2022/04/04 01:49:07;;;;;;;12.82;11.52;;;;;;;1.80;72.06;101686.06;5103730;28;20479;-70
2022/04/04 01:51:35;;;;;;;13.93;10.97;;;;;;;1.88;71.62;101691.19;5075661;28;20504;-70
2022/04/04 01:54:01;;;;;;;13.43;11.30;;;;;;;1.80;71.58;101693.06;5105073;28;20024;-70
2022/04/04 01:56:27;;;;;;;12.70;10.82;;;;;;;1.76;71.57;101686.13;5096332;28;20047;-70
2022/04/04 01:58:54;;;;;;;12.45;11.13;;;;;;;1.75;71.80;101673.91;5094160;28;20160;-70
2022/04/04 02:01:22;;;;;;;16.70;12.25;;;;;;;1.61;71.98;101660.09;5091818;28;20046;-70
2022/04/04 02:03:50;;;;;;;14.38;11.38;;;;;;;1.70;72.15;101668.69;5097911;28;20040;-70
2022/04/04 02:06:17;;;;;;;14.15;11.15;;;;;;;1.62;72.28;101653.97;5092300;28;20024;-70
2022/04/04 02:08:43;;;;;;;12.93;11.40;;;;;;;1.70;71.59;101654.72;5096740;28;20024;-70
2022/04/04 02:11:08;;;;;;;15.13;11.68;;;;;;;1.70;72.00;101657.34;5092357;28;20077;-70
2022/04/04 02:13:34;;;;;;;17.83;11.43;;;;;;;1.69;72.18;101650.38;5096518;28;20110;-70
2022/04/04 02:16:01;;;;;;;15.13;10.70;;;;;;;1.76;71.63;101652.03;5109118;28;20095;-70
2022/04/04 02:18:36;;;;;;;11.00;9.85;;;;;;;1.75;71.61;101638.06;5093661;28;20032;-70
2022/04/04 02:21:03;;;;;;;15.48;11.52;;;;;;;1.74;71.72;101645.97;5093572;28;20113;-70
2022/04/04 02:23:28;;;;;;;12.77;11.35;;;;;;;1.65;72.12;101630.31;5097536;28;20012;-70
2022/04/04 02:25:56;;;;;;;14.05;10.68;;;;;;;1.86;71.24;101637.91;5093444;28;20614;-70
2022/04/04 02:28:21;;;;;;;12.25;10.23;;;;;;;1.80;71.51;101633.63;5091298;28;20107;-70
2022/04/04 02:30:49;;;;;;;15.23;11.48;;;;;;;1.80;71.67;101632.75;5093263;28;20119;-70
2022/04/04 02:33:18;;;;;;;12.98;10.02;;;;;;;1.79;72.29;101626.66;5095933;28;20028;-70
2022/04/04 02:35:43;;;;;;;13.48;10.38;;;;;;;1.78;71.99;101619.66;5099338;28;20504;-70
2022/04/04 02:38:09;;;;;;;12.15;10.70;;;;;;;1.68;71.86;101593.59;5100873;28;20106;-70
2022/04/04 02:40:35;;;;;;;13.50;11.05;;;;;;;1.79;71.89;101608.28;5111111;27;20016;-70
2022/04/04 02:43:05;;;;;;;12.63;10.50;;;;;;;1.77;71.95;101599.56;5093318;28;20136;-70
2022/04/04 02:45:31;;;;;;;11.75;10.55;;;;;;;1.86;71.82;101602.94;5106174;28;20043;-70
2022/04/04 02:47:57;;;;;;;13.50;11.25;;;;;;;1.92;71.78;101600.25;5103595;28;20363;-70
2022/04/04 02:50:22;;;;;;;11.77;10.18;;;;;;;1.89;71.55;101592.41;5098142;28;20031;-70
2022/04/04 02:52:48;;;;;;;12.63;11.18;;;;;;;1.83;71.95;101587.28;5100313;28;20034;-70
2022/04/04 02:57:57;;;;;;;11.45;9.57;;;;;;;1.84;71.48;101574.13;5093421;28;20074;-70
2022/04/04 03:00:26;;;;;;;14.40;10.73;;;;;;;1.93;71.63;101568.72;5102753;28;20478;-70
2022/04/04 03:02:53;;;;;;;12.30;10.30;;;;;;;1.92;71.71;101567.00;5094906;28;20032;-70
2022/04/04 03:05:19;;;;;;;14.77;10.93;;;;;;;1.91;71.87;101562.66;5090813;28;20031;-70
2022/04/04 03:07:45;;;;;;;12.40;9.70;;;;;;;1.90;72.16;101560.03;5091034;28;20482;-70
2022/04/04 03:10:12;;;;;;;12.57;9.80;;;;;;;1.90;72.06;101550.41;5092605;28;20234;-70
2022/04/04 03:12:42;;;;;;;12.75;10.15;;;;;;;1.97;72.14;101552.06;5093004;28;20436;-70
2022/04/04 03:15:11;;;;;;;12.63;9.75;;;;;;;1.97;71.70;101536.31;5110752;28;20436;-70
2022/04/04 03:17:39;;;;;;;11.95;10.00;;;;;;;1.97;72.20;101532.81;5113193;28;20099;-70
2022/04/04 03:20:09;;;;;;;14.02;10.20;;;;;;;2.12;71.26;101529.94;5092701;28;20043;-70
2022/04/04 03:22:38;;;;;;;14.30;9.23;;;;;;;2.04;71.89;101530.06;5090057;28;20028;-70
2022/04/04 03:25:04;;;;;;;14.20;10.20;;;;;;;1.98;72.29;101522.31;5092913;28;20121;-70
2022/04/04 03:27:30;;;;;;;12.27;9.53;;;;;;;2.10;72.35;101525.63;5101928;28;20367;-70
2022/04/04 03:29:55;;;;;;;11.82;10.38;;;;;;;2.08;72.30;101509.03;5078236;28;20043;-70
2022/04/04 03:32:21;;;;;;;12.07;10.07;;;;;;;2.05;72.76;101504.69;5092815;28;20024;-70
2022/04/04 03:34:48;;;;;;;12.03;9.90;;;;;;;2.07;72.76;101500.31;5074892;28;20036;-70
2022/04/04 03:37:14;;;;;;;13.80;9.32;;;;;;;2.04;72.70;101490.72;5102247;28;20529;-70
2022/04/04 03:39:39;;;;;;;13.52;10.05;;;;;;;2.15;72.68;101490.53;5091512;28;20032;-70
2022/04/04 03:42:05;;;;;;;12.23;10.75;;;;;;;2.10;73.01;101486.25;5090928;28;20028;-69
2022/04/04 03:44:31;;;;;;;13.03;9.33;;;;;;;2.15;73.15;101482.66;5074168;28;20028;-69
2022/04/04 03:46:56;;;;;;;13.48;10.18;;;;;;;2.15;73.05;101471.31;5095855;28;20016;-70
2022/04/04 03:49:22;;;;;;;15.27;10.93;;;;;;;2.19;72.77;101473.84;5102455;28;20032;-70
2022/04/04 03:51:49;;;;;;;13.18;10.18;;;;;;;2.21;72.74;101471.19;5099824;28;20036;-70
2022/04/04 03:54:14;;;;;;;11.57;10.38;;;;;;;2.19;73.33;101460.72;5097551;28;20386;-70
2022/04/04 03:56:40;;;;;;;14.52;11.27;;;;;;;2.15;73.68;101451.19;5095309;28;20056;-70
2022/04/04 03:59:05;;;;;;;14.77;10.30;;;;;;;2.22;73.13;101458.03;5091483;28;20032;-70
2022/04/04 04:01:31;;;;;;;15.65;10.50;;;;;;;2.25;73.25;101463.22;5090659;28;20512;-70
2022/04/04 04:03:59;;;;;;;14.38;10.13;;;;;;;2.35;72.99;101447.28;5089889;28;20086;-69
2022/04/04 04:06:25;;;;;;;12.38;10.48;;;;;;;2.22;74.01;101444.06;5072849;28;20043;-70
2022/04/04 04:08:51;;;;;;;16.08;10.23;;;;;;;2.37;73.27;101441.13;5073264;28;20070;-70
2022/04/04 04:11:17;;;;;;;16.02;11.13;;;;;;;2.30;73.93;101438.66;5090730;28;20020;-70
2022/04/04 04:13:44;;;;;;;12.52;11.05;;;;;;;2.32;74.02;101437.72;5090069;28;20162;-70
2022/04/04 04:16:10;;;;;;;16.08;11.15;;;;;;;2.29;74.06;101429.91;5090703;28;20030;-70
2022/04/04 04:18:37;;;;;;;12.27;11.00;;;;;;;2.27;74.02;101427.31;5091189;28;20032;-70
2022/04/04 04:21:03;;;;;;;14.48;11.10;;;;;;;2.36;74.15;101422.81;5100774;28;20433;-70
2022/04/04 04:23:28;;;;;;;16.02;10.98;;;;;;;2.33;74.39;101415.84;5095648;28;20494;-70
2022/04/04 04:25:56;;;;;;;14.55;11.05;;;;;;;2.35;74.10;101410.56;5093920;28;20053;-70
2022/04/04 04:28:22;;;;;;;15.98;11.05;;;;;;;2.36;74.29;101413.16;5097998;28;20034;-70
2022/04/04 04:30:52;;;;;;;13.43;11.55;;;;;;;2.37;74.55;101412.25;5089797;28;20617;-70
2022/04/04 04:33:18;;;;;;;12.38;11.18;;;;;;;2.44;74.14;101398.13;5089467;28;20036;-70
2022/04/04 04:35:43;;;;;;;15.35;11.38;;;;;;;2.44;74.17;101399.84;5089321;28;20490;-70
2022/04/04 04:38:09;;;;;;;14.68;11.13;;;;;;;2.49;73.99;101392.75;5094177;28;20051;-69
2022/04/04 04:40:35;;;;;;;17.33;11.45;;;;;;;2.52;74.04;101387.44;5091176;28;20378;-70
2022/04/04 04:43:01;;;;;;;15.10;11.82;;;;;;;2.47;74.34;101384.03;5101517;28;20035;-70
2022/04/04 04:45:27;;;;;;;15.55;11.85;;;;;;;2.58;73.74;101378.56;5092735;28;20024;-70
2022/04/04 04:47:52;;;;;;;14.82;11.77;;;;;;;2.50;74.54;101370.88;5088851;28;20055;-70
2022/04/04 04:50:20;;;;;;;13.45;10.68;;;;;;;2.51;74.61;101359.47;5094779;28;20043;-70
2022/04/04 04:52:46;;;;;;;16.95;11.93;;;;;;;2.58;74.39;101373.31;5102457;28;20432;-70
2022/04/04 04:55:13;;;;;;;15.45;12.38;;;;;;;2.59;74.17;101369.78;5090656;28;20040;-70
2022/04/04 04:57:39;;;;;;;12.88;11.02;;;;;;;2.56;74.77;101362.88;5090905;28;20097;-70
2022/04/04 05:00:07;;;;;;;16.10;11.68;;;;;;;2.61;74.15;101358.38;5088347;28;20494;-70
2022/04/04 05:02:34;;;;;;;13.00;11.60;;;;;;;2.57;74.73;101348.84;5089243;28;20085;-70
2022/04/04 05:05:00;;;;;;;14.32;11.85;;;;;;;2.58;74.74;101345.31;5099330;28;20028;-70
2022/04/04 05:07:26;;;;;;;12.63;10.13;;;;;;;2.60;74.63;101343.53;5089500;28;20059;-70
2022/04/04 05:09:52;;;;;;;16.17;12.25;;;;;;;2.64;74.11;101331.19;5098493;28;20451;-70
2022/04/04 05:12:18;;;;;;;16.83;12.13;;;;;;;2.66;74.30;101332.88;5089779;28;20425;-70
2022/04/04 05:14:44;;;;;;;14.45;12.57;;;;;;;2.70;74.18;101328.41;5098640;28;20027;-70
2022/04/04 05:17:10;;;;;;;14.10;12.13;;;;;;;2.69;74.40;101324.06;5099929;28;20024;-70
2022/04/04 05:19:36;;;;;;;15.15;12.55;;;;;;;2.74;74.72;101322.22;5072197;28;20039;-70
2022/04/04 05:22:04;;;;;;;17.08;11.98;;;;;;;2.83;73.97;101311.47;5098010;28;20390;-70
2022/04/04 05:24:29;;;;;;;16.92;12.63;;;;;;;2.73;74.49;101302.06;5096320;28;20019;-70
2022/04/04 05:26:56;;;;;;;15.60;13.85;;;;;;;2.80;74.43;101300.19;5071141;28;20391;-70
2022/04/04 05:29:26;;;;;;;16.65;13.10;;;;;;;2.82;74.09;101290.50;5097828;28;20024;-70
2022/04/04 05:31:55;;;;;;;16.83;13.55;;;;;;;2.94;73.62;101298.97;5090494;28;20020;-70
2022/04/04 05:34:26;;;;;;;16.88;13.85;;;;;;;2.92;73.92;101284.13;5098589;28;20060;-70
2022/04/04 05:36:52;;;;;;;17.48;12.15;;;;;;;2.72;73.91;101243.44;5090814;28;20118;-70
2022/04/04 05:39:18;;;;;;;18.15;13.73;;;;;;;2.91;74.38;101272.78;5089022;28;20123;-70
2022/04/04 05:41:44;;;;;;;16.90;13.02;;;;;;;2.89;74.34;101269.31;5088839;28;20089;-70
2022/04/04 05:44:09;;;;;;;16.15;11.82;;;;;;;2.92;74.10;101271.84;5090185;28;20020;-70
2022/04/04 05:46:35;;;;;;;15.35;11.93;;;;;;;2.96;74.13;101272.63;5088353;28;21360;-70
2022/04/04 05:49:05;;;;;;;14.07;12.68;;;;;;;2.89;74.18;101271.94;5090156;28;20468;-69
2022/04/04 05:51:35;;;;;;;16.02;12.50;;;;;;;2.85;73.84;101251.00;5097859;28;20032;-70
2022/04/04 05:54:02;;;;;;;20.25;13.27;;;;;;;2.96;74.14;101259.50;5094052;28;20443;-69
2022/04/04 05:56:28;;;;;;;20.10;13.75;;;;;;;2.97;73.63;101253.34;5088467;28;20054;-70
2022/04/04 05:58:54;;;;;;;13.68;11.30;;;;;;;3.08;73.55;101245.19;5087751;28;20032;-70
2022/04/04 06:01:21;;;;;;;19.65;13.63;;;;;;;3.01;74.32;101235.75;5074313;28;20390;-70
2022/04/04 06:03:50;;;;;;;15.80;13.68;;;;;;;3.08;73.68;101248.69;5105972;28;20036;-70
2022/04/04 06:06:15;;;;;;;18.17;13.30;;;;;;;3.07;74.06;101239.06;5071989;28;20035;-69
2022/04/04 06:08:41;;;;;;;22.13;14.80;;;;;;;3.10;73.73;101239.00;5094609;28;20403;-70
2022/04/04 06:11:06;;;;;;;16.13;13.20;;;;;;;3.07;73.74;101227.72;5087118;28;20036;-69
2022/04/04 06:13:32;;;;;;;18.48;14.80;;;;;;;3.16;73.75;101230.94;5093553;28;20039;-69
2022/04/04 06:15:58;;;;;;;17.23;14.77;;;;;;;3.30;72.67;101216.59;5073062;28;20040;-69
2022/04/04 06:18:26;;;;;;;17.33;14.20;;;;;;;3.26;72.74;101218.41;5087870;28;20039;-69
2022/04/04 06:20:51;;;;;;;19.58;13.70;;;;;;;3.32;72.91;101230.53;5071775;28;20047;-69
2022/04/04 06:23:17;;;;;;;20.23;13.70;;;;;;;3.29;72.81;101220.97;5101570;28;20024;-69
2022/04/04 06:25:43;;;;;;;16.80;13.82;;;;;;;3.35;72.64;101212.94;5103973;28;20483;-69
2022/04/04 06:28:12;;;;;;;18.42;13.32;;;;;;;3.47;71.82;101213.47;5094679;28;20027;-69
2022/04/04 06:30:37;;;;;;;17.13;13.40;;;;;;;3.44;71.61;101200.41;5095145;28;20086;-69
2022/04/04 06:33:05;;;;;;;21.27;13.48;;;;;;;3.48;72.12;101212.59;5091454;28;20051;-69
2022/04/04 06:35:30;;;;;;;20.67;14.68;;;;;;;3.53;71.89;101202.78;5090999;28;20028;-69
2022/04/04 06:37:56;;;;;;;20.08;14.13;;;;;;;3.52;72.51;101199.31;5092200;28;20031;-69
2022/04/04 06:40:22;;;;;;;16.27;14.27;;;;;;;3.58;72.31;101199.13;5108563;28;20407;-69
2022/04/04 06:42:49;;;;;;;19.23;14.38;;;;;;;3.75;70.84;101200.44;5086312;28;20032;-69
2022/04/04 06:45:17;;;;;;;22.67;15.00;;;;;;;3.79;71.56;101178.38;5093019;28;20569;-69
2022/04/04 06:47:42;;;;;;;17.70;14.02;;;;;;;3.83;70.98;101186.13;5091635;28;20065;-69
2022/04/04 06:50:09;;;;;;;15.13;13.07;;;;;;;3.89;70.82;101179.84;5101193;28;20028;-69
2022/04/04 06:52:35;;;;;;;17.38;14.07;;;;;;;3.97;70.57;101169.94;5092169;28;20036;-69
2022/04/04 06:55:01;;;;;;;13.77;11.73;;;;;;;4.02;70.43;101161.91;5093324;28;20051;-69
2022/04/04 06:57:30;;;;;;;18.83;13.35;;;;;;;4.00;70.94;101161.06;5091184;28;20039;-69
2022/04/04 06:59:56;;;;;;;21.58;13.35;;;;;;;4.14;69.81;101148.34;5091909;28;20075;-69
2022/04/04 07:02:21;;;;;;;22.58;13.25;;;;;;;4.08;70.92;101146.75;5091667;28;20031;-69
2022/04/04 07:04:49;;;;;;;15.85;12.85;;;;;;;4.14;70.16;101144.84;5072598;28;20107;-69
2022/04/04 07:07:17;;;;;;;22.48;13.15;;;;;;;4.17;69.97;101140.34;5092098;28;20062;-69
2022/04/04 07:09:43;;;;;;;16.05;13.80;;;;;;;4.29;69.33;101134.72;5088919;28;20437;-69
2022/04/04 07:12:09;;;;;;;16.42;12.05;;;;;;;4.36;68.33;101129.25;5094324;28;20030;-69
2022/04/04 07:14:34;;;;;;;20.27;13.63;;;;;;;4.35;68.67;101136.25;5102672;28;20542;-69
2022/04/04 07:17:01;;;;;;;15.18;12.60;;;;;;;4.39;69.00;101122.09;5092907;28;20111;-69
2022/04/04 07:19:32;;;;;;;16.35;12.98;;;;;;;4.44;68.52;101114.91;5074598;28;20028;-69
2022/04/04 07:21:59;;;;;;;15.68;12.32;;;;;;;4.46;68.47;101105.16;5089545;28;20115;-69
2022/04/04 07:24:25;;;;;;;17.48;12.68;;;;;;;4.56;68.40;101111.00;5095288;28;20015;-69
2022/04/04 07:26:51;;;;;;;13.70;11.23;;;;;;;4.47;68.11;101080.59;5097250;28;20024;-69
2022/04/04 07:29:17;;;;;;;18.60;13.10;;;;;;;4.45;68.88;101085.03;5090943;28;20039;-69
2022/04/04 07:31:42;;;;;;;23.17;13.15;;;;;;;4.47;67.97;101063.91;5091747;28;20028;-69
2022/04/04 07:34:10;;;;;;;14.07;12.32;;;;;;;4.54;68.42;101095.25;5092533;28;20028;-69
2022/04/04 07:36:36;;;;;;;14.20;12.70;;;;;;;4.62;68.55;101084.47;5093484;28;20474;-69
2022/04/04 07:39:02;;;;;;;17.60;13.20;;;;;;;4.54;67.51;101054.88;5094477;28;20028;-69
2022/04/04 07:41:27;;;;;;;16.90;12.50;;;;;;;4.77;67.06;101070.75;5091548;28;20092;-69
2022/04/04 07:43:53;;;;;;;14.95;12.55;;;;;;;4.83;67.08;101077.56;5102716;28;20059;-69
2022/04/04 07:46:18;;;;;;;17.77;12.05;;;;;;;4.77;67.29;101086.56;5091754;28;20039;-69
2022/04/04 07:48:45;;;;;;;16.50;12.27;;;;;;;4.77;67.79;101069.88;5094499;28;20028;-69
2022/04/04 07:51:11;;;;;;;20.77;13.80;;;;;;;4.79;67.78;101044.31;5100035;28;20031;-69
2022/04/04 07:53:37;;;;;;;18.63;12.90;;;;;;;4.81;67.62;101054.81;5095809;28;20028;-69
2022/04/04 07:56:03;;;;;;;19.50;12.55;;;;;;;4.89;68.43;101065.97;5100441;28;20548;-69
2022/04/04 07:58:31;;;;;;;14.52;11.52;;;;;;;4.93;66.96;101047.31;5095502;28;20031;-69
2022/04/04 08:00:57;;;;;;;19.48;13.48;;;;;;;4.98;67.77;101036.63;5101701;28;20027;-69
2022/04/04 08:03:23;;;;;;;20.08;12.93;;;;;;;5.08;68.45;101032.72;5102863;28;20016;-69
2022/04/04 08:05:49;;;;;;;18.30;12.20;;;;;;;5.07;67.67;101020.47;5091786;28;20130;-69
2022/04/04 08:08:17;;;;;;;14.77;10.50;;;;;;;5.23;66.06;101021.63;5090143;28;20099;-69
2022/04/04 08:10:43;;;;;;;13.90;11.90;;;;;;;5.28;66.82;101034.63;5093128;28;20027;-69
2022/04/04 08:13:11;;;;;;;21.20;12.23;;;;;;;5.40;65.72;101022.72;5104335;28;20024;-69
2022/04/04 08:15:37;;;;;;;32.88;12.07;;;;;;;5.45;66.62;101020.78;5089100;28;20499;-69
2022/04/04 08:18:04;;;;;;;19.20;12.73;;;;;;;5.54;66.78;101011.66;5096038;28;20072;-69
2022/04/04 08:20:30;;;;;;;16.50;10.85;;;;;;;5.57;65.19;100986.00;5092745;28;20020;-69
2022/04/04 08:23:01;;;;;;;19.75;11.73;;;;;;;5.68;66.16;101011.97;5105468;28;20023;-69
2022/04/04 08:25:26;;;;;;;23.63;11.35;;;;;;;5.76;64.56;101001.09;5090676;28;20024;-69
2022/04/04 08:27:54;;;;;;;22.27;11.10;;;;;;;5.83;64.62;100984.94;5094094;28;20109;-69
2022/04/04 08:30:19;;;;;;;18.20;10.30;;;;;;;5.87;64.02;100990.94;5093669;28;20512;-69
2022/04/04 08:32:45;;;;;;;24.33;11.63;;;;;;;5.88;64.46;100992.66;5092446;28;20028;-69
2022/04/04 08:35:12;;;;;;;23.38;11.32;;;;;;;5.96;64.09;100982.69;5087058;28;20040;-69
2022/04/04 08:37:41;;;;;;;20.25;11.20;;;;;;;6.07;63.77;100982.25;5089598;28;20533;-71
2022/04/04 08:40:09;;;;;;;27.65;11.73;;;;;;;6.06;62.80;100983.13;5090345;28;20020;-69
2022/04/04 08:42:35;;;;;;;29.60;11.15;;;;;;;6.14;62.94;100973.97;5088988;28;20024;-69
2022/04/04 08:45:03;;;;;;;23.33;10.10;;;;;;;6.18;62.36;100961.53;5093591;28;20027;-69
2022/04/04 08:47:31;;;;;;;39.95;11.85;;;;;;;6.25;63.25;100978.81;5091034;28;20027;-68
2022/04/04 08:50:00;;;;;;;28.98;11.27;;;;;;;6.33;61.80;100987.25;5086787;28;20028;-69
2022/04/04 08:52:26;;;;;;;33.65;12.32;;;;;;;6.35;61.37;100950.19;5089693;28;20020;-69
2022/04/04 08:54:53;;;;;;;48.80;12.05;;;;;;;6.37;61.72;100945.72;5086805;28;20178;-69
2022/04/04 08:57:21;;;;;;;41.50;12.20;;;;;;;6.54;60.52;100947.63;5085442;28;20052;-68
2022/04/04 08:59:46;;;;;;;28.52;12.63;;;;;;;6.34;60.82;100944.06;5090949;28;20028;-69
2022/04/04 09:02:12;;;;;;;37.40;10.90;;;;;;;6.39;61.96;100953.59;5105508;28;20032;-69
2022/04/04 09:04:39;;;;;;;30.80;11.40;;;;;;;6.46;61.45;100928.59;5089607;28;20104;-69
2022/04/04 09:07:06;;;;;;;52.97;12.32;;;;;;;6.33;62.01;100937.06;5072824;28;20036;-69
2022/04/04 09:09:43;;;;;;;41.78;13.05;;;;;;;6.25;63.21;100925.13;5090183;28;20383;-69
2022/04/04 09:12:22;;;;;;;42.67;11.68;;;;;;;6.39;62.50;100935.09;5088358;28;20040;-69
2022/04/04 09:14:54;;;;;;;25.77;11.40;;;;;;;6.24;62.91;100910.22;5087326;28;20073;-69
2022/04/04 09:17:33;;;;;;;54.83;13.07;;;;;;;6.18;63.19;100931.59;5090623;28;20020;-69
2022/04/04 09:20:07;;;;;;;36.17;12.68;;;;;;;6.06;63.91;100911.84;5089316;28;20023;-69
2022/04/04 09:22:33;;;;;;;34.17;12.95;;;;;;;6.14;63.77;100910.59;5090869;28;20028;-69
2022/04/04 09:25:02;;;;;;;46.33;12.20;;;;;;;6.09;64.93;100911.75;5102452;28;20521;-69
2022/04/04 09:27:29;;;;;;;40.00;13.93;;;;;;;6.11;65.21;100915.16;5086493;28;20059;-69
2022/04/04 09:29:59;;;;;;;30.73;11.52;;;;;;;6.24;64.79;100908.44;5090410;28;20028;-69
2022/04/04 09:32:42;;;;;;;23.27;12.43;;;;;;;6.16;66.20;100918.47;5092829;28;20483;-69
2022/04/04 09:35:10;;;;;;;31.55;11.93;;;;;;;6.28;65.98;100904.72;5093632;28;20059;-69
2022/04/04 09:37:38;;;;;;;19.58;10.93;;;;;;;6.32;66.04;100892.22;5103549;28;20019;-70
2022/04/04 09:40:18;;;;;;;23.48;12.60;;;;;;;6.10;67.81;100893.19;5109790;28;20475;-70
2022/04/04 09:42:50;;;;;;;20.75;11.63;;;;;;;6.04;68.58;100896.09;5089538;28;20032;-70
2022/04/04 09:45:16;;;;;;;21.17;12.68;;;;;;;6.06;68.62;100888.97;5090343;28;20024;-69
2022/04/04 09:47:49;;;;;;;17.58;11.25;;;;;;;5.99;69.73;100876.09;5088697;28;20043;-70
2022/04/04 09:50:45;;;;;;;15.73;12.27;;;;;;;5.97;69.34;100883.22;5081373;28;20027;-69
2022/04/04 09:53:16;;;;;;;16.58;13.35;;;;;;;5.98;70.03;100896.38;5098641;28;20024;-69
2022/04/04 09:55:48;;;;;;;21.13;12.95;;;;;;;6.01;70.04;100877.75;5084502;28;20113;-70
2022/04/04 09:58:17;;;;;;;18.75;13.13;;;;;;;5.82;71.59;100871.50;5095568;28;20027;-69
2022/04/04 10:00:48;;;;;;;12.30;11.00;;;;;;;5.92;70.65;100873.69;5103462;28;20032;-69
2022/04/04 10:03:16;;;;;;;20.15;13.40;;;;;;;5.80;72.76;100865.47;5089645;28;20027;-69
2022/04/04 10:05:54;;;;;;;13.15;11.55;;;;;;;5.91;71.52;100884.31;5113194;28;20110;-70
2022/04/04 10:08:24;;;;;;;19.42;13.20;;;;;;;5.57;72.48;100843.53;5088712;28;20453;-69
2022/04/04 10:10:50;;;;;;;17.75;13.38;;;;;;;5.80;73.27;100870.75;5089343;28;20359;-69
2022/04/04 10:13:17;;;;;;;16.05;13.80;;;;;;;5.82;73.13;100859.16;5101115;28;20027;-69
2022/04/04 10:15:43;;;;;;;20.80;13.93;;;;;;;5.74;74.33;100852.53;5091125;28;20027;-69
2022/04/04 10:18:09;;;;;;;18.58;12.98;;;;;;;5.72;74.55;100836.75;5089149;28;20077;-69
2022/04/04 10:20:36;;;;;;;17.58;12.20;;;;;;;5.86;74.67;100841.44;5092140;28;20028;-70
2022/04/04 10:23:05;;;;;;;18.52;14.57;;;;;;;5.72;75.87;100851.72;5092968;28;20072;-70
2022/04/04 10:25:32;;;;;;;19.65;13.43;;;;;;;5.75;76.58;100855.09;5103403;28;20023;-70
2022/04/04 10:27:59;;;;;;;18.75;14.38;;;;;;;5.65;77.54;100852.00;5092685;28;20024;-69
2022/04/04 10:30:42;;;;;;;16.98;15.00;;;;;;;5.68;78.24;100840.47;5068640;28;20033;-69
2022/04/04 10:33:24;;;;;;;20.48;13.75;;;;;;;5.74;76.51;100836.69;5079257;28;20478;-69
2022/04/04 10:35:58;;;;;;;22.88;15.93;;;;;;;5.65;78.26;100846.72;5093623;28;20024;-69
2022/04/04 10:38:31;;;;;;;16.48;14.13;;;;;;;5.63;79.27;100847.69;5092914;28;20085;-69
2022/04/04 10:41:00;;;;;;;18.58;15.80;;;;;;;5.60;80.61;100837.28;5076316;28;20020;-69
2022/04/04 10:43:31;;;;;;;19.42;14.80;;;;;;;5.58;80.18;100839.97;5093439;28;20087;-69
2022/04/04 10:46:09;;;;;;;19.75;14.02;;;;;;;5.69;79.46;100843.00;5094022;28;20016;-69
2022/04/04 10:48:40;;;;;;;17.30;13.70;;;;;;;5.67;80.38;100847.50;5092625;28;20038;-69
2022/04/04 10:51:08;;;;;;;19.38;16.27;;;;;;;5.49;82.32;100845.63;5093563;28;20028;-69
2022/04/04 10:53:44;;;;;;;19.70;14.65;;;;;;;5.50;81.35;100828.03;5093651;28;20414;-69
2022/04/04 10:56:17;;;;;;;19.60;16.30;;;;;;;5.44;82.20;100839.69;5093777;28;20047;-69
2022/04/04 10:58:42;;;;;;;20.05;16.65;;;;;;;5.43;83.25;100835.34;5091827;28;20027;-69
2022/04/04 11:01:15;;;;;;;19.55;14.82;;;;;;;5.58;83.00;100824.13;5096646;28;20028;-69
2022/04/04 11:04:01;;;;;;;20.77;16.42;;;;;;;5.59;82.77;100820.59;5093222;28;20443;-69
2022/04/04 11:09:32;;;;;;;17.02;14.98;;;;;;;5.40;84.67;100807.31;5099893;28;20050;-69
2022/04/04 11:12:00;;;;;;;19.13;15.50;;;;;;;5.42;85.18;100825.72;5097083;27;20020;-69
2022/04/04 11:14:31;;;;;;;18.92;16.02;;;;;;;5.62;84.38;100819.63;5092209;28;20497;-69
2022/04/04 11:17:08;;;;;;;19.20;15.60;;;;;;;5.41;84.74;100814.34;5093250;28;20020;-69
2022/04/04 11:19:47;;;;;;;16.73;15.02;;;;;;;5.48;84.73;100801.72;5092841;28;20027;-69
2022/04/04 11:22:17;;;;;;;20.50;16.17;;;;;;;5.31;85.34;100809.50;5092008;28;20032;-69
2022/04/04 11:24:44;;;;;;;12.52;11.20;;;;;;;5.43;84.26;100809.81;5093951;28;20065;-69